createdAt,value
2023-05-03T00:01:32.932Z,10.95
2023-05-03T00:03:59.444Z,11.82
2023-05-03T00:06:26.829Z,9.65
2023-05-03T00:08:53.506Z,10.80
2023-05-03T00:11:19.938Z,10.48
2023-05-03T00:13:46.620Z,13.02
2023-05-03T00:16:13.157Z,10.18
2023-05-03T00:18:39.744Z,9.57
2023-05-03T00:21:06.240Z,10.50
2023-05-03T00:23:32.657Z,10.63
2023-05-03T00:25:59.284Z,9.93
2023-05-03T00:28:26.869Z,9.93
2023-05-03T00:30:53.916Z,10.52
2023-05-03T00:33:20.509Z,15.40
2023-05-03T00:35:47.103Z,10.90
2023-05-03T00:38:15.434Z,10.65
2023-05-03T00:40:41.909Z,11.60
2023-05-03T00:43:11.580Z,11.45
2023-05-03T00:45:38.282Z,10.82
2023-05-03T00:48:04.882Z,12.40
2023-05-03T00:50:31.440Z,13.88
2023-05-03T00:52:58.174Z,12.20
2023-05-03T00:55:26.193Z,13.93
2023-05-03T00:57:52.736Z,21.10
2023-05-03T01:00:20.331Z,11.35
2023-05-03T01:02:47.031Z,15.02
2023-05-03T01:05:13.739Z,13.48
2023-05-03T01:07:55.562Z,12.70
2023-05-03T01:10:31.091Z,11.77
2023-05-03T01:13:16.264Z,14.38
2023-05-03T01:16:12.668Z,14.05
2023-05-03T01:18:44.066Z,13.45
2023-05-03T01:21:13.204Z,14.13
2023-05-03T01:24:03.748Z,14.13
2023-05-03T01:26:30.243Z,15.00
2023-05-03T01:28:56.852Z,15.43
2023-05-03T01:31:38.410Z,14.98
2023-05-03T01:34:21.884Z,16.58
2023-05-03T01:36:49.747Z,12.70
2023-05-03T01:39:24.730Z,14.40
2023-05-03T01:41:52.832Z,16.63
2023-05-03T01:44:22.094Z,16.52
2023-05-03T01:46:49.626Z,13.90
2023-05-03T01:49:16.414Z,16.38
2023-05-03T01:51:42.892Z,15.70
2023-05-03T01:54:09.341Z,14.10
2023-05-03T01:56:36.857Z,16.15
2023-05-03T01:59:03.974Z,15.30
2023-05-03T02:01:30.701Z,14.48
2023-05-03T02:03:57.227Z,14.35
2023-05-03T02:06:27.133Z,15.43
2023-05-03T02:08:54.314Z,22.50
2023-05-03T02:11:21.479Z,15.40
2023-05-03T02:13:50.422Z,19.25
2023-05-03T02:16:18.038Z,16.83
2023-05-03T02:18:44.695Z,17.08
2023-05-03T02:21:11.289Z,17.90
2023-05-03T02:23:37.741Z,18.50
2023-05-03T02:26:04.195Z,21.42
2023-05-03T02:28:30.653Z,18.08
2023-05-03T02:30:57.267Z,17.77
2023-05-03T02:33:23.887Z,20.70
2023-05-03T02:35:50.817Z,16.45
2023-05-03T02:38:17.421Z,19.58
2023-05-03T02:40:43.937Z,16.27
2023-05-03T02:43:10.495Z,18.42
2023-05-03T02:45:37.387Z,18.88
2023-05-03T02:48:04.057Z,19.33
2023-05-03T02:50:31.135Z,21.10
2023-05-03T02:52:57.656Z,20.73
2023-05-03T02:55:24.491Z,19.25
2023-05-03T02:57:50.957Z,20.02
2023-05-03T03:00:19.567Z,19.88
2023-05-03T03:02:46.471Z,18.45
2023-05-03T03:05:13.067Z,19.85
2023-05-03T03:07:43.810Z,25.25
2023-05-03T03:10:10.670Z,19.80
2023-05-03T03:12:38.007Z,18.50
2023-05-03T03:15:07.810Z,20.67
2023-05-03T03:17:38.934Z,19.15
2023-05-03T03:20:11.661Z,20.90
2023-05-03T03:22:41.148Z,22.45
2023-05-03T03:25:08.262Z,22.52
2023-05-03T03:27:35.260Z,23.50
2023-05-03T03:30:02.880Z,23.55
2023-05-03T03:32:33.759Z,21.85
2023-05-03T03:35:02.594Z,20.35
2023-05-03T03:37:30.805Z,20.40
2023-05-03T03:39:57.272Z,26.02
2023-05-03T03:42:25.754Z,23.77
2023-05-03T03:44:52.800Z,21.20
2023-05-03T03:47:19.364Z,23.75
2023-05-03T03:49:45.998Z,17.63
2023-05-03T03:52:12.608Z,19.65
2023-05-03T03:54:39.432Z,20.15
2023-05-03T03:57:05.989Z,23.00
2023-05-03T03:59:33.388Z,19.50
2023-05-03T04:02:00.090Z,19.15
2023-05-03T04:04:26.800Z,22.92
2023-05-03T04:06:55.222Z,21.52
2023-05-03T04:09:24.722Z,17.42
2023-05-03T04:11:51.313Z,22.42
2023-05-03T04:14:18.239Z,18.45
2023-05-03T04:16:45.698Z,20.38
2023-05-03T04:19:12.230Z,19.42
2023-05-03T04:21:40.873Z,19.58
2023-05-03T04:24:07.737Z,17.52
2023-05-03T04:26:35.212Z,20.17
2023-05-03T04:29:12.466Z,18.60
2023-05-03T04:31:40.275Z,20.75
2023-05-03T04:34:07.727Z,18.02
2023-05-03T04:36:35.311Z,16.20
2023-05-03T04:39:01.836Z,21.70
2023-05-03T04:41:28.294Z,20.77
2023-05-03T04:43:55.169Z,20.15
2023-05-03T04:46:21.793Z,18.10
2023-05-03T04:48:49.634Z,19.17
2023-05-03T04:51:17.653Z,18.88
2023-05-03T04:53:45.567Z,21.15
2023-05-03T04:56:16.333Z,20.05
2023-05-03T04:58:44.563Z,17.50
2023-05-03T05:01:12.544Z,16.60
2023-05-03T05:03:39.179Z,19.08
2023-05-03T05:06:12.409Z,14.80
2023-05-03T05:08:40.660Z,19.40
2023-05-03T05:11:10.689Z,18.25
2023-05-03T05:13:37.254Z,22.50
2023-05-03T05:16:04.015Z,19.77
2023-05-03T05:18:31.524Z,21.02
2023-05-03T05:21:01.385Z,19.98
2023-05-03T05:23:29.348Z,16.58
2023-05-03T05:26:00.361Z,22.10
2023-05-03T05:28:29.664Z,19.17
2023-05-03T05:30:56.178Z,19.90
2023-05-03T05:33:22.920Z,19.10
2023-05-03T05:35:49.980Z,17.65
2023-05-03T05:38:19.908Z,18.38
2023-05-03T05:40:46.807Z,18.85
2023-05-03T05:43:13.337Z,19.63
2023-05-03T05:45:42.908Z,17.95
2023-05-03T05:48:09.368Z,18.85
2023-05-03T05:50:36.495Z,17.60
2023-05-03T05:53:09.082Z,19.45
2023-05-03T05:55:39.510Z,17.55
2023-05-03T05:58:06.097Z,17.67
2023-05-03T06:00:39.393Z,18.50
2023-05-03T06:03:06.015Z,19.90
2023-05-03T06:05:32.550Z,18.42
2023-05-03T06:07:59.106Z,18.55
2023-05-03T06:10:26.223Z,18.60
2023-05-03T06:12:55.272Z,18.23
2023-05-03T06:15:24.349Z,25.00
2023-05-03T06:17:50.845Z,18.20
2023-05-03T06:20:18.382Z,41.53
2023-05-03T06:22:46.481Z,43.08
2023-05-03T06:25:16.195Z,26.08
2023-05-03T06:27:45.786Z,20.73
2023-05-03T06:30:12.805Z,22.38
2023-05-03T06:32:41.856Z,23.90
2023-05-03T06:35:12.518Z,25.38
2023-05-03T06:37:40.077Z,21.42
2023-05-03T06:40:07.584Z,27.58
2023-05-03T06:42:36.262Z,19.67
2023-05-03T06:45:08.300Z,26.65
2023-05-03T06:47:37.511Z,36.90
2023-05-03T06:50:04.993Z,26.25
2023-05-03T06:52:31.928Z,22.67
2023-05-03T06:54:58.707Z,37.33
2023-05-03T06:57:27.031Z,27.38
2023-05-03T06:59:55.247Z,29.73
2023-05-03T07:02:21.757Z,28.17
2023-05-03T07:04:48.198Z,32.33
2023-05-03T07:07:15.855Z,30.60
2023-05-03T07:09:43.665Z,30.00
2023-05-03T07:12:11.399Z,26.80
2023-05-03T07:14:39.592Z,31.35
2023-05-03T07:17:06.465Z,28.73
2023-05-03T07:19:32.984Z,31.38
2023-05-03T07:21:59.463Z,31.75
2023-05-03T07:24:26.236Z,29.35
2023-05-03T07:26:53.729Z,33.47
2023-05-03T07:29:21.035Z,31.98
2023-05-03T07:31:47.703Z,29.30
2023-05-03T07:34:14.268Z,33.53
2023-05-03T07:36:40.968Z,35.53
2023-05-03T07:39:07.792Z,32.00
2023-05-03T07:41:34.301Z,30.85
2023-05-03T07:44:00.897Z,34.38
2023-05-03T07:46:27.472Z,31.77
2023-05-03T07:48:53.948Z,36.22
2023-05-03T07:51:20.981Z,33.33
2023-05-03T07:53:47.488Z,31.65
2023-05-03T07:56:13.974Z,35.25
2023-05-03T07:58:41.077Z,34.80
2023-05-03T08:01:08.296Z,30.67
2023-05-03T08:03:34.951Z,30.02
2023-05-03T08:06:01.808Z,33.70
2023-05-03T08:08:28.445Z,39.88
2023-05-03T08:10:54.989Z,33.85
2023-05-03T08:13:22.703Z,35.55
2023-05-03T08:15:50.128Z,31.83
2023-05-03T08:18:16.819Z,27.80
2023-05-03T08:20:44.882Z,30.40
2023-05-03T08:23:11.361Z,30.42
2023-05-03T08:25:37.921Z,28.88
2023-05-03T08:28:04.591Z,33.58
2023-05-03T08:30:31.421Z,35.38
2023-05-03T08:32:58.070Z,32.80
2023-05-03T08:35:24.692Z,32.58
2023-05-03T08:37:51.155Z,29.15
2023-05-03T08:40:17.760Z,31.90
2023-05-03T08:42:45.544Z,31.95
2023-05-03T08:45:15.875Z,32.92
2023-05-03T08:47:45.743Z,24.08
2023-05-03T08:50:14.153Z,28.33
2023-05-03T08:52:42.630Z,27.15
2023-05-03T08:55:10.616Z,20.77
2023-05-03T08:57:37.767Z,21.55
2023-05-03T09:00:12.997Z,21.52
2023-05-03T09:02:40.710Z,22.25
2023-05-03T09:05:16.327Z,23.25
2023-05-03T09:08:09.963Z,22.75
2023-05-03T09:10:41.247Z,21.55
2023-05-03T09:15:35.440Z,22.88
2023-05-03T09:18:10.624Z,20.48
2023-05-03T09:20:39.746Z,23.77
2023-05-03T09:23:10.189Z,21.80
2023-05-03T09:25:57.597Z,23.42
2023-05-03T09:28:25.254Z,22.95
2023-05-03T09:31:04.505Z,18.63
2023-05-03T09:33:31.008Z,21.83
2023-05-03T09:36:03.357Z,20.92
2023-05-03T09:38:32.340Z,19.00
2023-05-03T09:40:59.236Z,21.98
2023-05-03T09:43:26.032Z,18.35
2023-05-03T09:45:52.928Z,16.98
2023-05-03T09:48:23.569Z,17.13
2023-05-03T09:50:51.179Z,17.17
2023-05-03T09:53:21.505Z,19.38
2023-05-03T09:55:50.813Z,21.67
2023-05-03T09:58:18.627Z,20.98
2023-05-03T10:00:46.460Z,17.90
2023-05-03T10:03:20.069Z,19.38
2023-05-03T10:05:48.423Z,18.27
2023-05-03T10:08:38.743Z,19.73
2023-05-03T10:11:08.901Z,16.60
2023-05-03T10:13:36.265Z,13.25
2023-05-03T10:16:09.266Z,15.32
2023-05-03T10:18:43.773Z,13.85
2023-05-03T10:21:16.368Z,14.02
2023-05-03T10:24:15.884Z,15.98
2023-05-03T10:26:47.617Z,14.27
2023-05-03T10:29:36.059Z,13.52
2023-05-03T10:32:26.034Z,13.55
2023-05-03T10:35:07.891Z,13.73
2023-05-03T10:37:36.087Z,13.20
2023-05-03T10:40:16.323Z,12.60
2023-05-03T10:42:50.536Z,13.43
2023-05-03T10:45:28.480Z,12.05
2023-05-03T10:48:13.023Z,17.60
2023-05-03T10:50:40.613Z,13.95
2023-05-03T10:53:07.583Z,12.88
2023-05-03T10:55:34.758Z,15.55
2023-05-03T10:58:03.497Z,14.18
2023-05-03T11:00:33.963Z,15.85
2023-05-03T11:03:35.750Z,12.82
2023-05-03T11:06:03.318Z,13.98
2023-05-03T11:08:37.633Z,12.13
2023-05-03T11:11:09.834Z,16.75
2023-05-03T11:13:36.985Z,11.18
2023-05-03T11:16:07.941Z,10.85
2023-05-03T11:18:34.562Z,10.73
2023-05-03T11:21:01.536Z,10.43
2023-05-03T11:23:29.158Z,11.82
2023-05-03T11:25:57.784Z,14.07
2023-05-03T11:28:25.780Z,9.80
2023-05-03T11:30:52.448Z,10.10
2023-05-03T11:33:18.996Z,9.65
2023-05-03T11:35:45.711Z,11.23
2023-05-03T11:38:12.144Z,10.77
2023-05-03T11:40:39.634Z,12.27
2023-05-03T11:43:09.631Z,11.77
2023-05-03T11:45:45.470Z,12.02
2023-05-03T11:48:13.856Z,9.80
2023-05-03T11:50:51.579Z,11.60
2023-05-03T11:53:19.302Z,10.10
2023-05-03T11:55:48.189Z,13.13
2023-05-03T11:58:17.624Z,9.93
2023-05-03T12:00:46.840Z,11.48
2023-05-03T12:03:18.547Z,15.70
2023-05-03T12:05:46.317Z,11.35
2023-05-03T12:08:15.162Z,9.10
2023-05-03T12:10:42.855Z,9.77
2023-05-03T12:13:10.008Z,9.15
2023-05-03T12:15:40.528Z,12.40
2023-05-03T12:18:12.439Z,10.77
2023-05-03T12:23:10.516Z,9.73
2023-05-03T12:25:39.649Z,10.80
2023-05-03T12:28:19.827Z,10.43
2023-05-03T12:30:47.877Z,9.90
2023-05-03T12:33:16.614Z,12.30
2023-05-03T12:35:47.283Z,12.15
2023-05-03T12:38:16.438Z,9.43
2023-05-03T12:40:45.378Z,10.43
2023-05-03T12:43:12.447Z,11.65
2023-05-03T12:45:40.796Z,9.20
2023-05-03T12:48:08.388Z,10.13
2023-05-03T12:53:08.599Z,8.15
2023-05-03T12:55:41.894Z,10.25
2023-05-03T13:00:49.152Z,10.77
2023-05-03T13:03:32.511Z,10.90
2023-05-03T13:06:00.715Z,11.48
2023-05-03T13:08:33.854Z,10.95
2023-05-03T13:11:01.824Z,12.95
2023-05-03T13:13:28.608Z,11.05
2023-05-03T13:15:55.363Z,11.13
2023-05-03T13:18:22.787Z,12.25
2023-05-03T13:20:50.406Z,11.30
2023-05-03T13:23:16.875Z,10.60
2023-05-03T13:25:44.472Z,13.90
2023-05-03T13:28:10.925Z,11.52
2023-05-03T13:30:37.333Z,11.65
2023-05-03T13:33:03.871Z,12.85
2023-05-03T13:35:30.892Z,11.18
2023-05-03T13:37:57.805Z,13.13
2023-05-03T13:40:24.632Z,11.85
2023-05-03T13:42:51.320Z,10.65
2023-05-03T13:45:18.487Z,11.18
2023-05-03T13:50:14.959Z,13.27
2023-05-03T13:52:42.500Z,13.43
2023-05-03T13:55:09.188Z,12.82
2023-05-03T13:57:36.166Z,13.32
2023-05-03T14:00:02.918Z,12.00
2023-05-03T14:02:33.010Z,11.20
2023-05-03T14:04:59.444Z,7.85
2023-05-03T14:07:25.865Z,6.90
2023-05-03T14:09:52.278Z,6.57
2023-05-03T14:12:18.692Z,8.57
2023-05-03T14:14:46.022Z,9.50
2023-05-03T14:17:13.151Z,9.73
2023-05-03T14:19:39.807Z,12.00
2023-05-03T14:22:06.302Z,14.15
2023-05-03T14:24:32.805Z,13.23
2023-05-03T14:27:00.166Z,12.48
2023-05-03T14:29:27.264Z,9.68
2023-05-03T14:31:54.033Z,11.00
2023-05-03T14:34:20.563Z,11.55
2023-05-03T14:36:47.002Z,10.30
2023-05-03T14:39:16.573Z,8.95
2023-05-03T14:41:45.944Z,9.93
2023-05-03T14:44:12.445Z,8.77
2023-05-03T14:46:38.975Z,10.25
2023-05-03T14:49:05.488Z,12.70
2023-05-03T14:51:32.787Z,11.32
2023-05-03T14:53:59.476Z,10.38
2023-05-03T14:56:26.458Z,10.15
2023-05-03T14:58:53.250Z,8.65
2023-05-03T15:01:20.471Z,12.77
2023-05-03T15:03:47.353Z,10.25
2023-05-03T15:06:14.007Z,9.93
2023-05-03T15:08:41.196Z,8.27
2023-05-03T15:11:07.821Z,11.07
2023-05-03T15:13:34.886Z,8.25
2023-05-03T15:16:01.463Z,8.68
2023-05-03T15:18:27.960Z,8.57
2023-05-03T15:20:54.611Z,11.25
2023-05-03T15:23:21.067Z,9.73
2023-05-03T15:25:48.075Z,7.85
2023-05-03T15:28:14.484Z,9.45
2023-05-03T15:30:41.222Z,12.43
2023-05-03T15:33:10.588Z,9.50
2023-05-03T15:35:40.235Z,8.65
2023-05-03T15:38:07.623Z,9.95
2023-05-03T15:40:34.119Z,7.22
2023-05-03T15:43:01.039Z,7.78
2023-05-03T15:45:28.370Z,7.85
2023-05-03T15:47:56.417Z,9.15
2023-05-03T15:50:22.922Z,6.68
2023-05-03T15:52:49.443Z,9.68
2023-05-03T15:55:17.417Z,9.55
2023-05-03T15:57:43.851Z,8.23
2023-05-03T16:00:12.620Z,11.63
2023-05-03T16:02:40.151Z,10.70
2023-05-03T16:05:07.169Z,11.30
2023-05-03T16:07:33.846Z,10.88
2023-05-03T16:10:00.792Z,11.07
2023-05-03T16:12:27.895Z,11.57
2023-05-03T16:14:55.506Z,9.63
2023-05-03T16:17:22.094Z,11.70
2023-05-03T16:19:48.722Z,14.63
2023-05-03T16:22:15.388Z,11.43
2023-05-03T16:24:41.876Z,9.07
2023-05-03T16:27:08.329Z,10.52
2023-05-03T16:29:36.912Z,10.00
2023-05-03T16:32:06.165Z,10.10
2023-05-03T16:34:32.817Z,7.88
2023-05-03T16:36:59.265Z,7.82
2023-05-03T16:39:25.932Z,9.68
2023-05-03T16:41:52.398Z,12.18
2023-05-03T16:44:19.258Z,11.00
2023-05-03T16:46:46.771Z,10.02
2023-05-03T16:49:13.391Z,9.65
2023-05-03T16:51:41.050Z,10.82
2023-05-03T16:54:07.606Z,8.55
2023-05-03T16:56:34.134Z,11.73
2023-05-03T16:59:00.612Z,7.88
2023-05-03T17:01:27.172Z,9.57
2023-05-03T17:03:53.764Z,11.13
2023-05-03T17:06:20.419Z,11.75
2023-05-03T17:08:47.005Z,8.80
2023-05-03T17:11:14.414Z,9.05
2023-05-03T17:13:41.492Z,9.30
2023-05-03T17:16:09.865Z,9.38
2023-05-03T17:18:38.563Z,9.85
2023-05-03T17:21:05.776Z,11.32
2023-05-03T17:23:36.162Z,11.07
2023-05-03T17:26:04.238Z,11.25
2023-05-03T17:28:32.572Z,8.48
2023-05-03T17:30:59.699Z,10.70
2023-05-03T17:33:26.743Z,11.65
2023-05-03T17:35:53.647Z,9.80
2023-05-03T17:38:20.161Z,11.20
2023-05-03T17:40:46.676Z,57.17
2023-05-03T17:43:13.951Z,13.32
2023-05-03T17:45:43.694Z,15.32
2023-05-03T17:48:11.217Z,16.05
2023-05-03T17:50:37.948Z,17.90
2023-05-03T17:53:04.495Z,9.80
2023-05-03T17:55:34.928Z,21.70
2023-05-03T17:58:01.532Z,7.68
2023-05-03T18:00:28.028Z,12.48
2023-05-03T18:02:54.593Z,10.57
2023-05-03T18:05:21.051Z,9.95
2023-05-03T18:07:47.503Z,9.65
2023-05-03T18:10:16.326Z,23.73
2023-05-03T18:12:43.568Z,11.52
2023-05-03T18:15:10.724Z,10.57
2023-05-03T18:17:37.430Z,10.93
2023-05-03T18:20:06.126Z,10.25
2023-05-03T18:22:32.894Z,8.02
2023-05-03T18:25:01.813Z,10.95
2023-05-03T18:27:28.851Z,7.35
2023-05-03T18:29:55.361Z,6.07
2023-05-03T18:32:23.555Z,7.53
2023-05-03T18:34:49.980Z,7.47
2023-05-03T18:37:16.579Z,8.20
2023-05-03T18:39:43.047Z,8.77
2023-05-03T18:42:10.332Z,7.65
2023-05-03T18:44:38.438Z,6.97
2023-05-03T18:47:05.197Z,6.28
2023-05-03T18:49:31.752Z,7.65
2023-05-03T18:51:58.196Z,9.98
2023-05-03T18:54:24.608Z,8.75
2023-05-03T18:56:51.734Z,7.10
2023-05-03T18:59:18.344Z,8.77
2023-05-03T19:01:44.865Z,6.63
2023-05-03T19:04:11.383Z,7.38
2023-05-03T19:06:37.905Z,9.82
2023-05-03T19:09:04.339Z,10.85
2023-05-03T19:11:30.824Z,7.70
2023-05-03T19:13:57.253Z,9.18
2023-05-03T19:16:23.699Z,9.88
2023-05-03T19:18:50.156Z,8.00
2023-05-03T19:21:17.414Z,6.88
2023-05-03T19:23:44.486Z,9.07
2023-05-03T19:26:10.961Z,8.25
2023-05-03T19:28:37.374Z,9.15
2023-05-03T19:31:04.927Z,10.90
2023-05-03T19:33:31.797Z,8.25
2023-05-03T19:35:58.313Z,9.35
2023-05-03T19:38:24.723Z,9.07
2023-05-03T19:40:58.210Z,6.63
2023-05-03T19:43:25.429Z,7.82
2023-05-03T19:45:52.609Z,11.82
2023-05-03T19:48:19.072Z,6.28
2023-05-03T19:50:45.500Z,10.52
2023-05-03T19:53:12.666Z,7.45
2023-05-03T19:55:39.135Z,8.90
2023-05-03T19:58:05.622Z,6.80
2023-05-03T20:00:32.093Z,8.18
2023-05-03T20:02:58.592Z,7.90
2023-05-03T20:05:25.177Z,7.80
2023-05-03T20:07:52.978Z,7.47
2023-05-03T20:10:19.359Z,9.80
2023-05-03T20:12:45.836Z,10.38
2023-05-03T20:15:12.395Z,9.35
2023-05-03T20:17:38.878Z,9.88
2023-05-03T20:20:12.315Z,9.23
2023-05-03T20:22:38.815Z,6.55
2023-05-03T20:25:05.941Z,11.07
2023-05-03T20:27:32.438Z,6.75
2023-05-03T20:29:59.315Z,7.18
2023-05-03T20:32:25.883Z,8.80
2023-05-03T20:34:52.308Z,9.25
2023-05-03T20:37:18.748Z,9.45
2023-05-03T20:39:45.244Z,7.43
2023-05-03T20:42:11.673Z,8.25
2023-05-03T20:44:38.330Z,8.48
2023-05-03T20:47:05.187Z,6.75
2023-05-03T20:49:31.646Z,6.45
2023-05-03T20:51:58.037Z,7.68
2023-05-03T20:54:24.988Z,7.85
2023-05-03T20:56:51.520Z,10.60
2023-05-03T20:59:17.975Z,8.77
2023-05-03T21:01:44.489Z,8.43
2023-05-03T21:04:11.182Z,8.77
2023-05-03T21:06:38.316Z,8.02
2023-05-03T21:09:05.851Z,9.40
2023-05-03T21:11:32.293Z,8.10
2023-05-03T21:14:01.077Z,8.63
2023-05-03T21:16:28.586Z,10.32
2023-05-03T21:18:55.562Z,8.45
2023-05-03T21:21:22.014Z,7.70
2023-05-03T21:23:48.433Z,7.60
2023-05-03T21:26:14.845Z,9.05
2023-05-03T21:28:41.330Z,8.95
2023-05-03T21:31:08.050Z,9.95
2023-05-03T21:33:34.886Z,8.90
2023-05-03T21:36:01.364Z,6.38
2023-05-03T21:38:28.163Z,9.18
2023-05-03T21:41:04.919Z,6.68
2023-05-03T21:43:32.407Z,7.88
2023-05-03T21:45:58.957Z,10.25
2023-05-03T21:48:25.399Z,8.38
2023-05-03T21:50:51.972Z,8.43
2023-05-03T21:53:18.420Z,12.68
2023-05-03T21:55:48.042Z,6.68
2023-05-03T21:58:14.588Z,7.95
2023-05-03T22:00:42.238Z,6.95
2023-05-03T22:03:09.048Z,7.57
2023-05-03T22:05:38.368Z,10.10
2023-05-03T22:08:05.992Z,7.82
2023-05-03T22:10:33.107Z,8.55
2023-05-03T22:13:00.050Z,9.98
2023-05-03T22:15:26.570Z,10.30
2023-05-03T22:17:53.090Z,8.55
2023-05-03T22:20:19.852Z,7.47
2023-05-03T22:22:46.361Z,8.30
2023-05-03T22:25:25.163Z,7.60
2023-05-03T22:27:52.154Z,9.80
2023-05-03T22:30:19.117Z,11.23
2023-05-03T22:32:46.769Z,9.25
2023-05-03T22:35:16.140Z,10.77
2023-05-03T22:37:42.617Z,12.00
2023-05-03T22:40:09.538Z,14.32
2023-05-03T22:42:36.110Z,11.20
2023-05-03T22:45:03.296Z,10.95
2023-05-03T22:47:29.781Z,13.15
2023-05-03T22:49:56.728Z,13.32
2023-05-03T22:52:23.279Z,13.93
2023-05-03T22:54:54.838Z,12.48
2023-05-03T22:57:21.236Z,13.07
2023-05-03T22:59:47.646Z,15.88
2023-05-03T23:02:14.701Z,16.35
2023-05-03T23:04:41.165Z,15.55
2023-05-03T23:07:07.697Z,21.05
2023-05-03T23:09:34.152Z,14.25
2023-05-03T23:12:00.636Z,13.77
2023-05-03T23:14:27.067Z,14.50
2023-05-03T23:16:53.582Z,17.10
2023-05-03T23:19:20.101Z,13.15
2023-05-03T23:21:46.532Z,14.25
2023-05-03T23:24:12.958Z,13.88
2023-05-03T23:26:39.512Z,11.32
2023-05-03T23:29:06.640Z,16.33
2023-05-03T23:31:34.134Z,15.40
2023-05-03T23:34:04.822Z,13.43
2023-05-03T23:36:32.248Z,16.60
2023-05-03T23:38:58.654Z,13.25
2023-05-03T23:41:25.135Z,13.85
2023-05-03T23:43:51.816Z,15.90
2023-05-03T23:46:18.290Z,12.60
2023-05-03T23:48:44.779Z,14.40
2023-05-03T23:51:11.204Z,16.30
2023-05-03T23:53:37.669Z,15.20
2023-05-03T23:56:04.242Z,13.48
2023-05-03T23:58:30.974Z,14.65
